createdAt,value
2023-02-13T00:00:23.719Z,60.17
2023-02-13T00:02:25.749Z,60.98
2023-02-13T00:04:27.785Z,61.10
2023-02-13T00:06:29.743Z,60.82
2023-02-13T00:08:31.778Z,61.32
2023-02-13T00:10:33.727Z,61.43
2023-02-13T00:12:36.023Z,61.38
2023-02-13T00:14:39.649Z,61.86
2023-02-13T00:16:41.604Z,61.78
2023-02-13T00:18:43.553Z,61.70
2023-02-13T00:20:46.203Z,62.22
2023-02-13T00:22:48.173Z,61.07
2023-02-13T00:24:51.761Z,61.38
2023-02-13T00:26:53.816Z,61.15
2023-02-13T00:28:57.137Z,60.91
2023-02-13T00:31:04.480Z,60.94
2023-02-13T00:33:06.609Z,61.06
2023-02-13T00:35:08.657Z,60.93
2023-02-13T00:37:10.633Z,61.23
2023-02-13T00:39:12.774Z,61.18
2023-02-13T00:41:16.746Z,61.02
2023-02-13T00:43:20.334Z,61.04
2023-02-13T00:45:22.431Z,60.80
2023-02-13T00:47:24.380Z,61.17
2023-02-13T00:49:26.337Z,60.65
2023-02-13T00:51:28.428Z,61.02
2023-02-13T00:53:31.051Z,60.94
2023-02-13T00:55:34.181Z,60.78
2023-02-13T00:57:36.183Z,60.98
2023-02-13T00:59:38.131Z,61.16
2023-02-13T01:01:40.265Z,61.14
2023-02-13T01:03:42.486Z,60.97
2023-02-13T01:05:45.307Z,61.26
2023-02-13T01:07:47.380Z,60.34
2023-02-13T01:09:49.332Z,60.52
2023-02-13T01:11:51.296Z,60.88
2023-02-13T01:13:53.248Z,60.72
2023-02-13T01:15:55.379Z,60.74
2023-02-13T01:17:57.675Z,61.01
2023-02-13T01:19:59.640Z,61.10
2023-02-13T01:22:01.687Z,60.76
2023-02-13T01:24:05.304Z,60.32
2023-02-13T01:26:09.423Z,60.12
2023-02-13T01:28:11.418Z,60.06
2023-02-13T01:30:14.965Z,60.43
2023-02-13T01:32:17.048Z,59.95
2023-02-13T01:34:19.393Z,59.95
2023-02-13T01:36:21.362Z,59.84
2023-02-13T01:38:23.364Z,60.60
2023-02-13T01:40:25.329Z,60.78
2023-02-13T01:42:30.452Z,61.04
2023-02-13T01:44:38.672Z,60.84
2023-02-13T01:46:44.233Z,60.60
2023-02-13T01:48:48.542Z,60.37
2023-02-13T01:50:57.762Z,60.65
2023-02-13T01:53:05.931Z,60.38
2023-02-13T01:55:10.935Z,60.96
2023-02-13T01:57:19.219Z,61.14
2023-02-13T01:59:27.268Z,61.04
2023-02-13T02:01:30.914Z,61.41
2023-02-13T02:03:40.269Z,61.66
2023-02-13T02:05:43.348Z,61.66
2023-02-13T02:07:46.282Z,61.51
2023-02-13T02:09:48.942Z,61.50
2023-02-13T02:11:56.579Z,61.59
2023-02-13T02:13:59.156Z,61.65
2023-02-13T02:16:01.557Z,61.35
2023-02-13T02:18:03.829Z,61.93
2023-02-13T02:20:10.659Z,61.33
2023-02-13T02:22:16.192Z,61.57
2023-02-13T02:24:28.049Z,61.45
2023-02-13T02:26:36.221Z,61.56
2023-02-13T02:28:41.603Z,61.57
2023-02-13T02:30:56.097Z,61.70
2023-02-13T02:33:04.563Z,61.36
2023-02-13T02:35:10.298Z,61.74
2023-02-13T02:37:14.103Z,61.94
2023-02-13T02:39:25.198Z,61.66
2023-02-13T02:41:42.429Z,61.46
2023-02-13T02:43:47.930Z,61.87
2023-02-13T02:46:01.655Z,61.88
2023-02-13T02:48:11.883Z,61.21
2023-02-13T02:50:20.509Z,61.60
2023-02-13T02:52:31.762Z,61.55
2023-02-13T02:54:46.925Z,61.67
2023-02-13T02:56:50.582Z,61.55
2023-02-13T02:59:02.029Z,61.55
2023-02-13T03:01:13.169Z,61.38
2023-02-13T03:03:22.183Z,61.37
2023-02-13T03:05:33.048Z,61.40
2023-02-13T03:07:34.790Z,61.08
2023-02-13T03:09:43.886Z,60.96
2023-02-13T03:11:53.059Z,61.22
2023-02-13T03:13:55.860Z,61.03
2023-02-13T03:16:03.603Z,60.80
2023-02-13T03:18:09.065Z,60.59
2023-02-13T03:20:18.644Z,60.81
2023-02-13T03:22:26.913Z,60.86
2023-02-13T03:24:35.818Z,60.79
2023-02-13T03:26:44.507Z,61.23
2023-02-13T03:28:53.057Z,61.43
2023-02-13T03:30:59.380Z,61.38
2023-02-13T03:33:07.729Z,61.29
2023-02-13T03:35:23.414Z,61.02
2023-02-13T03:37:34.760Z,60.38
2023-02-13T03:39:40.192Z,59.90
2023-02-13T03:41:52.987Z,59.44
2023-02-13T03:43:59.535Z,59.96
2023-02-13T03:46:03.592Z,59.51
2023-02-13T03:48:28.785Z,59.77
2023-02-13T03:50:30.885Z,59.97
2023-02-13T03:52:37.379Z,59.32
2023-02-13T03:54:49.340Z,59.74
2023-02-13T03:56:55.805Z,59.46
2023-02-13T03:59:02.556Z,59.21
2023-02-13T04:01:08.430Z,59.05
2023-02-13T04:03:13.810Z,59.51
2023-02-13T04:05:21.549Z,59.09
2023-02-13T04:07:29.138Z,58.99
2023-02-13T04:09:34.142Z,58.63
2023-02-13T04:11:39.487Z,59.05
2023-02-13T04:13:47.758Z,59.02
2023-02-13T04:15:56.345Z,58.23
2023-02-13T04:18:08.168Z,58.37
2023-02-13T04:20:12.270Z,58.44
2023-02-13T04:22:14.716Z,58.73
2023-02-13T04:24:16.667Z,58.52
2023-02-13T04:26:22.855Z,58.47
2023-02-13T04:28:24.832Z,58.75
2023-02-13T04:30:26.923Z,59.16
2023-02-13T04:32:29.276Z,58.49
2023-02-13T04:34:31.309Z,59.10
2023-02-13T04:36:33.261Z,59.09
2023-02-13T04:38:35.157Z,58.92
2023-02-13T04:40:37.129Z,59.12
2023-02-13T04:42:39.291Z,58.90
2023-02-13T04:44:41.334Z,59.22
2023-02-13T04:46:43.265Z,59.01
2023-02-13T04:48:45.179Z,58.77
2023-02-13T04:50:48.170Z,58.98
2023-02-13T04:52:55.686Z,58.74
2023-02-13T04:54:57.748Z,58.42
2023-02-13T04:56:59.781Z,58.52
2023-02-13T04:59:01.800Z,58.32
2023-02-13T05:01:11.197Z,58.62
2023-02-13T05:03:14.091Z,58.83
2023-02-13T05:05:16.307Z,58.63
2023-02-13T05:07:18.195Z,58.74
2023-02-13T05:09:20.260Z,58.01
2023-02-13T05:11:22.156Z,58.04
2023-02-13T05:13:24.080Z,58.09
2023-02-13T05:15:26.374Z,58.22
2023-02-13T05:17:28.468Z,58.27
2023-02-13T05:19:30.475Z,58.35
2023-02-13T05:21:35.536Z,58.43
2023-02-13T05:23:37.624Z,58.45
2023-02-13T05:25:41.831Z,58.53
2023-02-13T05:27:43.781Z,59.14
2023-02-13T05:29:45.737Z,58.74
2023-02-13T05:31:49.043Z,58.99
2023-02-13T05:33:51.048Z,59.08
2023-02-13T05:35:53.176Z,58.76
2023-02-13T05:37:55.103Z,58.92
2023-02-13T05:39:56.996Z,58.79
2023-02-13T05:41:59.698Z,59.25
2023-02-13T05:44:01.835Z,58.82
2023-02-13T05:46:05.637Z,59.22
2023-02-13T05:48:07.750Z,58.72
2023-02-13T05:50:10.414Z,58.52
2023-02-13T05:52:12.411Z,58.80
2023-02-13T05:54:14.642Z,59.03
2023-02-13T05:56:16.616Z,59.40
2023-02-13T05:58:20.390Z,58.98
2023-02-13T06:00:22.599Z,59.15
2023-02-13T06:02:24.772Z,58.88
2023-02-13T06:04:27.012Z,59.19
2023-02-13T06:06:29.092Z,59.14
2023-02-13T06:08:31.024Z,59.39
2023-02-13T06:10:32.919Z,59.05
2023-02-13T06:12:34.846Z,59.06
2023-02-13T06:14:36.808Z,59.01
2023-02-13T06:16:38.792Z,59.13
2023-02-13T06:18:40.998Z,59.11
2023-02-13T06:20:43.370Z,59.12
2023-02-13T06:22:49.007Z,59.24
2023-02-13T06:24:52.365Z,59.77
2023-02-13T06:26:54.422Z,59.51
2023-02-13T06:28:56.476Z,59.81
2023-02-13T06:30:58.903Z,60.00
2023-02-13T06:33:01.505Z,60.09
2023-02-13T06:35:05.468Z,60.18
2023-02-13T06:37:07.788Z,59.73
2023-02-13T06:39:12.431Z,60.59
2023-02-13T06:41:14.341Z,60.57
2023-02-13T06:43:17.883Z,60.14
2023-02-13T06:45:19.940Z,60.42
2023-02-13T06:47:21.955Z,60.39
2023-02-13T06:49:23.921Z,60.27
2023-02-13T06:51:25.928Z,60.66
2023-02-13T06:53:28.669Z,60.66
2023-02-13T06:55:30.737Z,60.32
2023-02-13T06:57:34.054Z,60.66
2023-02-13T06:59:36.008Z,60.53
2023-02-13T07:01:37.954Z,60.25
2023-02-13T07:03:40.070Z,60.44
2023-02-13T07:05:42.660Z,60.62
2023-02-13T07:07:44.860Z,60.46
2023-02-13T07:09:46.806Z,60.62
2023-02-13T07:11:48.838Z,60.48
2023-02-13T07:13:51.530Z,60.74
2023-02-13T07:15:53.529Z,60.79
2023-02-13T07:17:59.059Z,61.37
2023-02-13T07:20:01.211Z,61.34
2023-02-13T07:22:03.303Z,60.84
2023-02-13T07:24:07.960Z,60.93
2023-02-13T07:26:11.397Z,60.79
2023-02-13T07:28:13.714Z,60.85
2023-02-13T07:30:16.088Z,60.80
2023-02-13T07:32:18.078Z,61.05
2023-02-13T07:34:20.172Z,60.82
2023-02-13T07:36:22.178Z,60.83
2023-02-13T07:38:24.147Z,61.33
2023-02-13T07:40:26.210Z,61.38
2023-02-13T07:42:28.252Z,60.99
2023-02-13T07:44:30.708Z,61.45
2023-02-13T07:46:32.761Z,61.38
2023-02-13T07:48:34.896Z,61.56
2023-02-13T07:50:36.896Z,61.90
2023-02-13T07:52:39.119Z,61.94
2023-02-13T07:54:47.796Z,61.62
2023-02-13T07:56:50.002Z,61.29
2023-02-13T07:58:52.141Z,61.78
2023-02-13T08:00:54.155Z,61.84
2023-02-13T08:02:58.777Z,62.06
2023-02-13T08:05:00.861Z,62.29
2023-02-13T08:07:03.047Z,62.72
2023-02-13T08:09:08.216Z,62.60
2023-02-13T08:11:26.760Z,62.57
2023-02-13T08:13:29.362Z,62.57
2023-02-13T08:15:31.732Z,62.51
2023-02-13T08:17:33.768Z,62.66
2023-02-13T08:19:36.294Z,62.63
2023-02-13T08:21:38.416Z,62.45
2023-02-13T08:23:40.846Z,62.37
2023-02-13T08:25:43.079Z,62.29
2023-02-13T08:27:45.124Z,62.56
2023-02-13T08:29:49.297Z,62.58
2023-02-13T08:31:51.478Z,62.73
2023-02-13T08:33:53.620Z,62.79
2023-02-13T08:35:55.807Z,62.66
2023-02-13T08:38:01.615Z,62.87
2023-02-13T08:40:04.074Z,62.73
2023-02-13T08:42:06.164Z,63.22
2023-02-13T08:44:08.214Z,63.14
2023-02-13T08:46:10.753Z,63.35
2023-02-13T08:48:12.894Z,63.24
2023-02-13T08:50:15.094Z,63.05
2023-02-13T08:52:17.293Z,63.55
2023-02-13T08:54:19.354Z,63.44
2023-02-13T08:56:21.466Z,63.28
2023-02-13T08:58:24.281Z,63.14
2023-02-13T09:00:26.392Z,63.06
2023-02-13T09:02:28.537Z,63.36
2023-02-13T09:04:30.667Z,63.04
2023-02-13T09:06:32.771Z,62.83
2023-02-13T09:08:36.305Z,63.02
2023-02-13T09:10:39.399Z,62.64
2023-02-13T09:12:41.450Z,62.84
2023-02-13T09:14:43.611Z,63.06
2023-02-13T09:16:45.712Z,62.13
2023-02-13T09:18:48.817Z,62.36
2023-02-13T09:20:50.913Z,62.42
2023-02-13T09:22:54.977Z,62.15
2023-02-13T09:24:58.356Z,62.51
2023-02-13T09:27:00.523Z,62.06
2023-02-13T09:29:02.769Z,61.76
2023-02-13T09:31:10.024Z,61.98
2023-02-13T09:33:13.328Z,61.99
2023-02-13T09:35:16.569Z,61.52
2023-02-13T09:37:19.133Z,61.99
2023-02-13T09:39:21.337Z,61.26
2023-02-13T09:41:28.887Z,61.27
2023-02-13T09:43:34.377Z,60.99
2023-02-13T09:45:37.472Z,60.45
2023-02-13T09:47:43.805Z,60.61
2023-02-13T09:49:53.014Z,61.07
2023-02-13T09:51:57.681Z,60.46
2023-02-13T09:54:03.799Z,60.57
2023-02-13T09:56:10.862Z,60.26
2023-02-13T09:58:24.936Z,59.84
2023-02-13T10:00:34.806Z,60.36
2023-02-13T10:02:44.341Z,59.43
2023-02-13T10:04:48.193Z,60.12
2023-02-13T10:06:58.899Z,59.52
2023-02-13T10:09:09.652Z,59.80
2023-02-13T10:11:18.064Z,59.61
2023-02-13T10:13:26.353Z,60.04
2023-02-13T10:15:34.480Z,59.38
2023-02-13T10:17:41.964Z,59.93
2023-02-13T10:19:50.721Z,59.39
2023-02-13T10:21:58.384Z,58.48
2023-02-13T10:24:06.695Z,58.76
2023-02-13T10:26:20.113Z,58.46
2023-02-13T10:28:30.614Z,59.18
2023-02-13T10:30:37.226Z,58.63
2023-02-13T10:32:44.184Z,57.90
2023-02-13T10:34:47.399Z,58.24
2023-02-13T10:36:49.609Z,57.64
2023-02-13T10:38:56.147Z,58.01
2023-02-13T10:40:58.939Z,57.68
2023-02-13T10:43:07.418Z,57.38
2023-02-13T10:45:17.695Z,57.18
2023-02-13T10:47:34.447Z,56.91
2023-02-13T10:49:42.666Z,56.65
2023-02-13T10:51:55.493Z,56.45
2023-02-13T10:54:06.799Z,56.74
2023-02-13T10:56:12.861Z,55.92
2023-02-13T10:58:15.761Z,56.25
2023-02-13T11:00:23.101Z,55.93
2023-02-13T11:02:28.790Z,55.54
2023-02-13T11:04:31.223Z,55.64
2023-02-13T11:06:36.682Z,55.92
2023-02-13T11:08:43.832Z,55.83
2023-02-13T11:10:46.162Z,55.91
2023-02-13T11:12:49.330Z,56.04
2023-02-13T11:14:57.568Z,55.42
2023-02-13T11:17:04.476Z,56.45
2023-02-13T11:19:06.735Z,56.28
2023-02-13T11:21:15.282Z,55.64
2023-02-13T11:23:24.131Z,55.69
2023-02-13T11:25:31.439Z,54.67
2023-02-13T11:27:37.317Z,54.91
2023-02-13T11:29:54.194Z,54.38
2023-02-13T11:32:02.646Z,54.44
2023-02-13T11:34:10.887Z,54.04
2023-02-13T11:36:18.021Z,54.19
2023-02-13T11:38:23.572Z,53.75
2023-02-13T11:40:31.817Z,53.85
2023-02-13T11:42:37.243Z,54.10
2023-02-13T11:44:41.649Z,53.75
2023-02-13T11:46:48.403Z,53.46
2023-02-13T11:48:56.668Z,52.80
2023-02-13T11:50:59.135Z,53.25
2023-02-13T11:53:07.751Z,52.60
2023-02-13T11:55:15.995Z,52.89
2023-02-13T11:57:21.512Z,52.72
2023-02-13T11:59:25.658Z,52.02
2023-02-13T12:01:29.294Z,51.93
2023-02-13T12:03:32.441Z,51.66
2023-02-13T12:05:34.681Z,51.38
2023-02-13T12:07:36.883Z,51.25
2023-02-13T12:09:41.630Z,51.20
2023-02-13T12:11:49.017Z,50.80
2023-02-13T12:13:52.299Z,50.65
2023-02-13T12:16:02.888Z,50.15
2023-02-13T12:18:09.481Z,50.49
2023-02-13T12:20:16.446Z,50.15
2023-02-13T12:22:24.753Z,50.04
2023-02-13T12:24:30.349Z,49.75
2023-02-13T12:26:37.282Z,49.68
2023-02-13T12:28:55.449Z,48.91
2023-02-13T12:31:05.848Z,49.63
2023-02-13T12:33:11.494Z,49.39
2023-02-13T12:35:28.972Z,49.60
2023-02-13T12:37:34.452Z,49.44
2023-02-13T12:39:45.213Z,49.13
2023-02-13T12:41:48.417Z,49.22
2023-02-13T12:43:56.600Z,48.77
2023-02-13T12:46:04.104Z,48.71
2023-02-13T12:48:09.733Z,48.32
2023-02-13T12:50:21.167Z,48.44
2023-02-13T12:52:29.335Z,48.67
2023-02-13T12:54:33.233Z,48.58
2023-02-13T12:56:42.013Z,48.39
2023-02-13T12:58:45.951Z,48.09
2023-02-13T13:00:49.299Z,47.70
2023-02-13T13:02:57.565Z,47.26
2023-02-13T13:05:06.301Z,47.42
2023-02-13T13:07:20.480Z,47.53
2023-02-13T13:09:27.041Z,47.36
2023-02-13T13:11:38.423Z,47.80
2023-02-13T13:13:49.350Z,47.81
2023-02-13T13:15:55.532Z,47.33
2023-02-13T13:18:01.125Z,47.28
2023-02-13T13:20:09.377Z,46.96
2023-02-13T13:22:20.285Z,46.62
2023-02-13T13:24:26.946Z,46.45
2023-02-13T13:26:34.127Z,46.41
2023-02-13T13:28:41.879Z,46.61
2023-02-13T13:30:44.442Z,46.24
2023-02-13T13:32:52.559Z,45.93
2023-02-13T13:34:56.400Z,46.19
2023-02-13T13:37:02.041Z,46.05
2023-02-13T13:39:16.477Z,45.95
2023-02-13T13:41:30.197Z,46.06
2023-02-13T13:43:39.812Z,45.99
2023-02-13T13:45:48.217Z,46.19
2023-02-13T13:47:54.862Z,45.84
2023-02-13T13:50:00.117Z,45.33
2023-02-13T13:52:08.369Z,46.29
2023-02-13T13:54:11.235Z,45.95
2023-02-13T13:56:13.577Z,46.08
2023-02-13T13:58:21.868Z,45.94
2023-02-13T14:00:28.182Z,45.84
2023-02-13T14:02:34.837Z,46.03
2023-02-13T14:04:41.779Z,45.79
2023-02-13T14:06:44.576Z,45.53
2023-02-13T14:08:47.696Z,46.06
2023-02-13T14:10:50.556Z,46.04
2023-02-13T14:12:56.095Z,46.13
2023-02-13T14:15:00.207Z,46.06
2023-02-13T14:17:02.757Z,45.65
2023-02-13T14:19:06.270Z,45.19
2023-02-13T14:21:08.534Z,46.01
2023-02-13T14:23:14.228Z,45.45
2023-02-13T14:25:22.773Z,45.91
2023-02-13T14:27:30.207Z,46.26
2023-02-13T14:29:33.992Z,46.05
2023-02-13T14:31:40.289Z,45.68
2023-02-13T14:33:43.015Z,45.89
2023-02-13T14:35:45.149Z,45.40
2023-02-13T14:37:52.046Z,45.55
2023-02-13T14:40:09.636Z,45.89
2023-02-13T14:42:17.939Z,45.79
2023-02-13T14:44:23.448Z,45.59
2023-02-13T14:46:31.779Z,45.76
2023-02-13T14:48:40.368Z,45.60
2023-02-13T14:50:49.253Z,45.57
2023-02-13T14:52:52.735Z,45.51
2023-02-13T14:55:01.021Z,45.50
2023-02-13T14:57:09.580Z,45.49
2023-02-13T14:59:17.978Z,46.06
2023-02-13T15:01:28.530Z,45.78
2023-02-13T15:03:38.688Z,45.36
2023-02-13T15:05:41.757Z,45.66
2023-02-13T15:07:49.300Z,45.39
2023-02-13T15:09:56.216Z,45.46
2023-02-13T15:11:59.279Z,45.52
2023-02-13T15:14:17.493Z,45.66
2023-02-13T15:16:19.715Z,45.48
2023-02-13T15:18:26.276Z,45.70
2023-02-13T15:20:33.250Z,45.65
2023-02-13T15:22:38.842Z,45.46
2023-02-13T15:24:46.369Z,45.93
2023-02-13T15:26:54.971Z,45.70
2023-02-13T15:28:59.655Z,45.78
2023-02-13T15:31:05.621Z,45.90
2023-02-13T15:33:12.214Z,46.05
2023-02-13T15:35:26.055Z,46.26
2023-02-13T15:37:30.648Z,46.30
2023-02-13T15:39:32.995Z,46.32
2023-02-13T15:41:39.055Z,46.44
2023-02-13T15:43:44.566Z,46.70
2023-02-13T15:45:46.771Z,46.72
2023-02-13T15:47:50.214Z,47.05
2023-02-13T15:49:52.594Z,46.63
2023-02-13T15:52:00.929Z,47.05
2023-02-13T15:54:06.074Z,47.12
2023-02-13T15:56:15.351Z,47.30
2023-02-13T15:58:17.487Z,47.30
2023-02-13T16:00:25.637Z,47.55
2023-02-13T16:02:33.980Z,47.27
2023-02-13T16:04:36.529Z,47.53
2023-02-13T16:06:39.191Z,47.17
2023-02-13T16:08:45.555Z,47.99
2023-02-13T16:10:47.962Z,48.27
2023-02-13T16:12:50.095Z,48.23
2023-02-13T16:14:55.469Z,48.38
2023-02-13T16:17:03.163Z,48.64
2023-02-13T16:19:05.391Z,48.91
2023-02-13T16:21:09.305Z,49.62
2023-02-13T16:23:17.689Z,50.29
2023-02-13T16:25:25.487Z,49.98
2023-02-13T16:27:28.822Z,50.09
2023-02-13T16:29:31.120Z,49.96
2023-02-13T16:31:33.454Z,49.96
2023-02-13T16:33:41.656Z,49.64
2023-02-13T16:35:49.294Z,49.52
2023-02-13T16:37:56.453Z,49.53
2023-02-13T16:40:20.357Z,49.73
2023-02-13T16:42:22.874Z,49.91
2023-02-13T16:44:30.270Z,49.93
2023-02-13T16:46:33.935Z,49.85
2023-02-13T16:48:36.588Z,50.09
2023-02-13T16:50:38.751Z,50.16
2023-02-13T16:52:41.088Z,50.21
2023-02-13T16:54:48.105Z,50.30
2023-02-13T16:56:52.642Z,50.41
2023-02-13T16:59:00.890Z,50.47
2023-02-13T17:01:04.939Z,50.56
2023-02-13T17:03:09.713Z,50.53
2023-02-13T17:05:12.460Z,50.40
2023-02-13T17:07:18.146Z,50.73
2023-02-13T17:09:20.557Z,50.59
2023-02-13T17:11:22.874Z,50.56
2023-02-13T17:13:25.682Z,50.67
2023-02-13T17:15:30.156Z,50.84
2023-02-13T17:17:33.060Z,50.90
2023-02-13T17:19:35.201Z,50.98
2023-02-13T17:21:37.575Z,51.19
2023-02-13T17:23:40.434Z,51.46
2023-02-13T17:25:43.742Z,51.78
2023-02-13T17:27:45.801Z,51.82
2023-02-13T17:29:48.006Z,51.86
2023-02-13T17:31:55.787Z,52.41
2023-02-13T17:33:57.953Z,52.42
2023-02-13T17:36:00.083Z,52.50
2023-02-13T17:38:02.532Z,52.71
2023-02-13T17:40:05.343Z,52.97
2023-02-13T17:42:15.309Z,53.29
2023-02-13T17:44:17.532Z,53.86
2023-02-13T17:46:19.879Z,53.73
2023-02-13T17:48:22.013Z,54.23
2023-02-13T17:50:25.223Z,54.16
2023-02-13T17:52:29.150Z,54.47
2023-02-13T17:54:33.218Z,54.56
2023-02-13T17:56:35.406Z,54.55
2023-02-13T17:58:37.521Z,54.80
2023-02-13T18:00:39.713Z,54.74
2023-02-13T18:02:42.785Z,54.92
2023-02-13T18:04:45.370Z,55.48
2023-02-13T18:06:51.927Z,55.93
2023-02-13T18:08:53.968Z,55.93
2023-02-13T18:10:56.410Z,56.64
2023-02-13T18:13:04.514Z,56.79
2023-02-13T18:15:07.249Z,56.59
2023-02-13T18:17:10.607Z,57.04
2023-02-13T18:19:14.137Z,57.07
2023-02-13T18:21:16.270Z,57.25
2023-02-13T18:23:18.414Z,56.94
2023-02-13T18:25:21.445Z,57.28
2023-02-13T18:27:25.537Z,56.97
2023-02-13T18:29:27.947Z,57.14
2023-02-13T18:31:30.488Z,57.52
2023-02-13T18:33:32.868Z,57.67
2023-02-13T18:35:36.726Z,57.13
2023-02-13T18:37:39.448Z,57.09
2023-02-13T18:39:41.554Z,57.64
2023-02-13T18:41:43.989Z,57.62
2023-02-13T18:43:46.204Z,57.67
2023-02-13T18:45:48.552Z,57.88
2023-02-13T18:47:50.650Z,58.55
2023-02-13T18:49:52.817Z,58.13
2023-02-13T18:51:54.893Z,58.48
2023-02-13T18:53:57.349Z,58.70
2023-02-13T18:56:01.477Z,59.33
2023-02-13T18:58:03.646Z,59.05
2023-02-13T19:00:07.418Z,59.35
2023-02-13T19:02:10.780Z,59.61
2023-02-13T19:04:12.974Z,59.90
2023-02-13T19:06:19.306Z,59.71
2023-02-13T19:08:21.331Z,59.68
2023-02-13T19:10:23.490Z,59.86
2023-02-13T19:12:25.515Z,59.82
2023-02-13T19:14:27.557Z,59.35
2023-02-13T19:16:31.372Z,59.46
2023-02-13T19:18:37.191Z,59.32
2023-02-13T19:20:41.452Z,59.92
2023-02-13T19:22:43.493Z,60.09
2023-02-13T19:24:45.545Z,60.55
2023-02-13T19:26:47.717Z,59.64
2023-02-13T19:28:50.677Z,60.44
2023-02-13T19:30:52.803Z,60.57
2023-02-13T19:32:55.090Z,61.08
2023-02-13T19:34:57.056Z,60.89
2023-02-13T19:36:59.079Z,61.22
2023-02-13T19:39:04.018Z,61.52
2023-02-13T19:41:08.382Z,61.10
2023-02-13T19:43:10.913Z,61.25
2023-02-13T19:45:12.992Z,61.43
2023-02-13T19:47:15.026Z,61.82
2023-02-13T19:49:17.085Z,61.57
2023-02-13T19:51:21.660Z,61.13
2023-02-13T19:53:23.665Z,61.62
2023-02-13T19:55:27.318Z,61.39
2023-02-13T19:57:29.316Z,61.57
2023-02-13T19:59:32.837Z,60.61
2023-02-13T20:01:34.994Z,60.93
2023-02-13T20:03:37.040Z,61.20
2023-02-13T20:05:40.101Z,61.16
2023-02-13T20:07:42.235Z,60.95
2023-02-13T20:09:44.248Z,60.93
2023-02-13T20:11:46.424Z,61.65
2023-02-13T20:13:52.840Z,61.82
2023-02-13T20:15:55.364Z,61.57
2023-02-13T20:17:57.461Z,61.52
2023-02-13T20:19:59.559Z,61.99
2023-02-13T20:22:01.921Z,61.90
2023-02-13T20:24:05.059Z,61.43
2023-02-13T20:26:11.174Z,62.20
2023-02-13T20:28:13.200Z,61.49
2023-02-13T20:30:16.742Z,61.56
2023-02-13T20:32:18.845Z,61.63
2023-02-13T20:34:20.913Z,61.64
2023-02-13T20:36:25.613Z,61.37
2023-02-13T20:38:27.532Z,61.03
2023-02-13T20:40:29.582Z,61.74
2023-02-13T20:42:33.852Z,61.82
2023-02-13T20:44:36.030Z,61.34
2023-02-13T20:46:39.923Z,61.52
2023-02-13T20:48:43.516Z,61.92
2023-02-13T20:50:45.680Z,62.08
2023-02-13T20:52:47.807Z,61.66
2023-02-13T20:54:49.845Z,61.35
2023-02-13T20:56:51.955Z,61.23
2023-02-13T20:58:57.846Z,60.88
2023-02-13T21:01:02.208Z,61.00
2023-02-13T21:03:06.620Z,61.51
2023-02-13T21:05:09.557Z,61.54
2023-02-13T21:07:11.847Z,61.61
2023-02-13T21:09:15.515Z,61.21
2023-02-13T21:11:21.295Z,61.22
2023-02-13T21:13:26.597Z,61.40
2023-02-13T21:15:30.833Z,60.99
2023-02-13T21:17:35.087Z,61.11
2023-02-13T21:19:39.007Z,61.38
2023-02-13T21:21:46.227Z,61.19
2023-02-13T21:23:53.650Z,60.70
2023-02-13T21:25:58.929Z,61.26
2023-02-13T21:28:04.258Z,61.87
2023-02-13T21:30:08.052Z,61.38
2023-02-13T21:32:11.588Z,61.53
2023-02-13T21:34:16.540Z,60.98
2023-02-13T21:36:20.909Z,60.38
2023-02-13T21:38:24.343Z,60.96
2023-02-13T21:40:26.569Z,60.02
2023-02-13T21:42:28.610Z,59.74
2023-02-13T21:44:30.614Z,60.28
2023-02-13T21:46:33.566Z,59.63
2023-02-13T21:48:35.600Z,59.44
2023-02-13T21:50:38.208Z,59.43
2023-02-13T21:52:40.375Z,59.73
2023-02-13T21:54:43.539Z,59.79
2023-02-13T21:56:45.680Z,59.66
2023-02-13T21:58:48.247Z,59.65
2023-02-13T22:00:50.395Z,59.55
2023-02-13T22:02:52.479Z,59.79
2023-02-13T22:04:54.592Z,59.84
2023-02-13T22:06:56.646Z,59.49
2023-02-13T22:09:01.661Z,59.77
2023-02-13T22:11:04.139Z,59.46
2023-02-13T22:13:07.386Z,59.86
2023-02-13T22:15:10.420Z,59.45
2023-02-13T22:17:12.500Z,60.24
2023-02-13T22:19:16.177Z,59.60
2023-02-13T22:21:20.469Z,59.42
2023-02-13T22:23:22.364Z,59.14
2023-02-13T22:25:24.248Z,59.55
2023-02-13T22:27:43.468Z,59.23
2023-02-13T22:29:48.335Z,59.81
2023-02-13T22:31:50.693Z,59.90
2023-02-13T22:34:03.360Z,59.77
2023-02-13T22:36:06.604Z,60.05
2023-02-13T22:38:08.903Z,59.92
2023-02-13T22:40:11.609Z,59.64
2023-02-13T22:42:14.375Z,60.45
2023-02-13T22:44:16.664Z,60.07
2023-02-13T22:46:23.080Z,60.45
2023-02-13T22:48:24.930Z,60.13
2023-02-13T22:50:26.762Z,60.86
2023-02-13T22:52:28.951Z,60.46
2023-02-13T22:54:31.564Z,61.30
2023-02-13T22:56:34.568Z,61.42
2023-02-13T22:58:36.693Z,61.81
2023-02-13T23:00:39.470Z,60.94
2023-02-13T23:02:41.525Z,61.16
2023-02-13T23:04:47.618Z,61.21
2023-02-13T23:06:50.146Z,61.58
2023-02-13T23:08:53.754Z,61.81
2023-02-13T23:10:59.457Z,61.38
2023-02-13T23:13:01.964Z,61.64
2023-02-13T23:15:08.638Z,62.06
2023-02-13T23:17:14.126Z,61.80
2023-02-13T23:19:16.240Z,61.71
2023-02-13T23:21:18.717Z,61.63
2023-02-13T23:23:21.386Z,61.61
2023-02-13T23:25:25.926Z,62.07
2023-02-13T23:27:28.766Z,61.98
2023-02-13T23:29:30.888Z,61.91
2023-02-13T23:31:34.553Z,61.92
2023-02-13T23:33:36.594Z,62.22
2023-02-13T23:35:38.565Z,61.79
2023-02-13T23:37:40.747Z,61.74
2023-02-13T23:39:42.894Z,62.18
2023-02-13T23:41:45.070Z,61.77
2023-02-13T23:43:47.044Z,62.39
2023-02-13T23:45:50.054Z,62.67
2023-02-13T23:47:52.355Z,62.28
2023-02-13T23:49:54.304Z,62.91
2023-02-13T23:51:57.305Z,62.40
2023-02-13T23:54:00.619Z,62.89
2023-02-13T23:56:03.628Z,62.95
2023-02-13T23:58:05.646Z,62.85
